Time;durP1;ratioP1;P1;durP2;ratioP2;P2;SDS_P1;SDS_P2;PMS_P1;PMS_P2;Temp;Humidity;BMP_temperature;BMP_pressure;BME280_temperature;BME280_humidity;BME280_pressure;Samples;Min_cycle;Max_cycle;Signal;HPM_P1;HPM_P2
2021/05/15 00:02:09;;;;;;;;;;;;;;;18.05;49.80;99246.66;5033120;28;19909;-49
2021/05/15 00:04:35;;;;;;;;;;;;;;;17.97;49.67;99249.84;5033012;28;20345;-49
2021/05/15 00:07:00;;;;;;;;;;;;;;;17.96;49.75;99243.66;5033327;28;19916;-52
2021/05/15 00:09:25;;;;;;;;;;;;;;;18.11;49.65;99242.09;5033055;28;20020;-51
2021/05/15 00:11:51;;;;;;;;;;;;;;;17.95;50.38;99247.44;5033254;28;19919;-51
2021/05/15 00:14:16;;;;;;;;;;;;;;;18.12;50.04;99246.38;5033118;28;19909;-50
2021/05/15 00:16:41;;;;;;;;;;;;;;;18.10;50.18;99245.84;5032633;28;19991;-49
2021/05/15 00:19:07;;;;;;;;;;;;;;;18.24;49.20;99252.38;5032885;28;19917;-50
2021/05/15 00:21:32;;;;;;;;;;;;;;;18.10;50.10;99252.03;5032871;28;20284;-49
2021/05/15 00:23:57;;;;;;;;;;;;;;;18.02;50.31;99251.75;5032621;28;19909;-49
2021/05/15 00:26:23;;;;;;;;;;;;;;;17.97;51.13;99256.06;5032511;28;20253;-50
2021/05/15 00:28:48;;;;;;;;;;;;;;;18.14;50.65;99255.84;5032943;28;19916;-49
2021/05/15 00:31:13;;;;;;;;;;;;;;;18.27;49.98;99248.31;5032721;28;19912;-49
2021/05/15 00:33:38;;;;;;;;;;;;;;;18.35;50.13;99245.91;5032439;28;20373;-50
2021/05/15 00:36:04;;;;;;;;;;;;;;;18.22;49.41;99253.69;5032309;28;19916;-48
2021/05/15 00:38:29;;;;;;;;;;;;;;;18.05;49.31;99248.50;5032369;28;19909;-48
2021/05/15 00:40:55;;;;;;;;;;;;;;;17.85;48.83;99254.66;5032575;28;20270;-49
2021/05/15 00:43:20;;;;;;;;;;;;;;;17.43;50.06;99253.59;5031443;28;20273;-49
2021/05/15 00:45:45;;;;;;;;;;;;;;;17.56;50.17;99253.13;5032349;28;19929;-49
2021/05/15 00:48:11;;;;;;;;;;;;;;;17.69;49.50;99246.47;5032195;28;20353;-49
2021/05/15 00:50:36;;;;;;;;;;;;;;;17.66;49.33;99248.88;5032467;28;19999;-48
2021/05/15 00:53:02;;;;;;;;;;;;;;;17.17;49.99;99245.41;5032210;28;20249;-48
2021/05/15 00:55:27;;;;;;;;;;;;;;;17.15;50.35;99242.16;5032431;28;19909;-48
2021/05/15 00:57:53;;;;;;;;;;;;;;;17.07;50.39;99247.19;5032169;28;19912;-49
2021/05/15 01:00:18;;;;;;;;;;;;;;;16.98;50.98;99255.75;5032004;28;20444;-49
2021/05/15 01:02:43;;;;;;;;;;;;;;;16.80;51.26;99243.47;5031711;28;20349;-50
2021/05/15 01:05:09;;;;;;;;;;;;;;;17.04;50.44;99243.16;5031997;28;19909;-49
2021/05/15 01:07:35;;;;;;;;;;;;;;;17.02;49.65;99245.28;5032268;28;19975;-48
2021/05/15 01:10:00;;;;;;;;;;;;;;;17.11;49.44;99256.34;5032052;28;19913;-49
2021/05/15 01:12:25;;;;;;;;;;;;;;;16.97;49.76;99254.13;5031960;28;19909;-50
2021/05/15 01:14:50;;;;;;;;;;;;;;;17.10;49.82;99252.06;5031679;28;19909;-49
2021/05/15 01:17:16;;;;;;;;;;;;;;;17.05;50.49;99252.03;5031576;28;19924;-49
2021/05/15 01:19:41;;;;;;;;;;;;;;;16.97;51.82;99248.75;5031967;28;19928;-49
2021/05/15 01:22:10;;;;;;;;;;;;;;;17.04;52.26;99251.22;5031968;28;19913;-52
2021/05/15 01:24:35;;;;;;;;;;;;;;;16.92;53.62;99248.69;5032042;28;19916;-49
2021/05/15 01:27:04;;;;;;;;;;;;;;;17.00;54.62;99244.72;5031852;28;19909;-50
2021/05/15 01:29:29;;;;;;;;;;;;;;;16.55;56.07;99246.75;5031645;28;20000;-49
2021/05/15 01:31:54;;;;;;;;;;;;;;;16.87;55.41;99247.84;5031374;28;20043;-50
2021/05/15 01:34:20;;;;;;;;;;;;;;;16.21;57.80;99243.47;5030998;28;19913;-52
2021/05/15 01:36:45;;;;;;;;;;;;;;;16.20;58.33;99242.66;5031214;28;19909;-50
2021/05/15 01:39:11;;;;;;;;;;;;;;;15.61;61.44;99243.28;5031300;28;19916;-50
2021/05/15 01:41:36;;;;;;;;;;;;;;;15.53;61.66;99245.56;5031577;28;19915;-51
2021/05/15 01:44:01;;;;;;;;;;;;;;;15.86;60.00;99252.75;5031255;28;19978;-49
2021/05/15 01:46:27;;;;;;;;;;;;;;;16.22;60.21;99255.81;5029909;28;20435;-50
2021/05/15 01:48:52;;;;;;;;;;;;;;;16.59;58.53;99242.47;5031067;28;19916;-50
2021/05/15 01:51:17;;;;;;;;;;;;;;;17.14;56.54;99251.28;5030699;28;19916;-49
2021/05/15 01:53:43;;;;;;;;;;;;;;;17.20;56.72;99242.16;5030923;28;20302;-48
2021/05/15 01:56:12;;;;;;;;;;;;;;;17.43;55.49;99242.84;5030946;28;20369;-48
2021/05/15 01:58:37;;;;;;;;;;;;;;;17.63;55.54;99231.41;5030964;28;19909;-51
2021/05/15 02:01:03;;;;;;;;;;;;;;;17.75;55.05;99233.84;5031129;28;19978;-50
2021/05/15 02:03:28;;;;;;;;;;;;;;;17.80;54.37;99233.91;5031114;28;19948;-52
2021/05/15 02:05:54;;;;;;;;;;;;;;;17.72;55.20;99232.47;5030825;28;19916;-51
2021/05/15 02:08:19;;;;;;;;;;;;;;;17.94;54.59;99236.94;5030965;28;19909;-51
2021/05/15 02:10:45;;;;;;;;;;;;;;;18.10;54.28;99235.06;5030961;28;19916;-50
2021/05/15 02:13:10;;;;;;;;;;;;;;;17.72;54.87;99237.88;5030938;28;20354;-49
2021/05/15 02:15:36;;;;;;;;;;;;;;;17.66;55.38;99236.22;5032123;28;19917;-53
2021/05/15 02:18:03;;;;;;;;;;;;;;;17.40;56.42;99235.28;5034759;28;20355;-51
2021/05/15 02:20:28;;;;;;;;;;;;;;;17.52;55.32;99233.22;5034618;28;20424;-52
2021/05/15 02:22:53;;;;;;;;;;;;;;;17.05;56.29;99233.22;5034806;28;19996;-52
2021/05/15 02:25:19;;;;;;;;;;;;;;;17.34;55.62;99239.84;5034793;28;19909;-50
2021/05/15 02:27:44;;;;;;;;;;;;;;;17.66;55.10;99233.53;5034686;28;20373;-51
2021/05/15 02:30:10;;;;;;;;;;;;;;;17.94;53.89;99237.72;5034891;28;20527;-50
2021/05/15 02:32:35;;;;;;;;;;;;;;;17.78;52.68;99225.25;5034600;28;19936;-51
2021/05/15 02:35:00;;;;;;;;;;;;;;;17.68;53.29;99233.28;5034408;28;20001;-52
2021/05/15 02:37:26;;;;;;;;;;;;;;;17.67;53.99;99234.34;5034805;28;20365;-53
2021/05/15 02:39:51;;;;;;;;;;;;;;;17.74;53.42;99238.44;5034646;28;19913;-51
2021/05/15 02:42:16;;;;;;;;;;;;;;;17.75;54.07;99233.84;5034374;28;20377;-53
2021/05/15 02:44:41;;;;;;;;;;;;;;;17.39;55.21;99241.75;5034945;28;19916;-51
2021/05/15 02:47:07;;;;;;;;;;;;;;;17.39;54.84;99253.31;5034448;28;20511;-52
2021/05/15 02:49:32;;;;;;;;;;;;;;;17.26;55.55;99250.28;5034841;28;19937;-53
2021/05/15 02:51:57;;;;;;;;;;;;;;;17.23;54.95;99243.56;5032801;28;20338;-37
2021/05/15 02:54:22;;;;;;;;;;;;;;;17.29;54.36;99245.19;5034365;28;19913;-38
2021/05/15 02:56:48;;;;;;;;;;;;;;;17.30;54.49;99244.09;5020586;28;19914;-37
2021/05/15 02:59:13;;;;;;;;;;;;;;;17.55;53.55;99256.09;5046332;28;20303;-37
2021/05/15 03:01:38;;;;;;;;;;;;;;;17.38;53.64;99249.03;5024481;28;20393;-38
2021/05/15 03:04:04;;;;;;;;;;;;;;;17.39;54.18;99247.13;5034302;28;19939;-37
2021/05/15 03:06:29;;;;;;;;;;;;;;;17.17;55.70;99253.47;5034020;28;19909;-37
2021/05/15 03:08:55;;;;;;;;;;;;;;;17.14;55.09;99255.84;5033886;28;19909;-37
2021/05/15 03:11:20;;;;;;;;;;;;;;;17.03;54.13;99256.84;5023899;28;20274;-38
2021/05/15 03:13:45;;;;;;;;;;;;;;;17.11;53.76;99259.84;5014179;28;19911;-39
2021/05/15 03:16:11;;;;;;;;;;;;;;;17.11;54.05;99262.53;5013940;28;19948;-37
2021/05/15 03:18:36;;;;;;;;;;;;;;;17.26;53.07;99263.72;5014085;28;19947;-37
2021/05/15 03:21:01;;;;;;;;;;;;;;;17.27;53.51;99276.09;5013898;28;19913;-37
2021/05/15 03:23:26;;;;;;;;;;;;;;;17.20;53.47;99273.63;5013531;28;19996;-37
2021/05/15 03:25:52;;;;;;;;;;;;;;;17.33;53.18;99278.56;5013381;28;19913;-38
2021/05/15 03:28:17;;;;;;;;;;;;;;;17.30;53.82;99278.25;5012620;28;20392;-38
2021/05/15 03:30:42;;;;;;;;;;;;;;;17.35;53.45;99278.31;5013619;28;19936;-38
2021/05/15 03:33:08;;;;;;;;;;;;;;;17.32;54.05;99282.31;5019165;28;19951;-37
2021/05/15 03:35:33;;;;;;;;;;;;;;;17.32;54.25;99281.50;5033631;28;19913;-38
2021/05/15 03:37:58;;;;;;;;;;;;;;;17.29;54.35;99279.34;5033800;28;20057;-38
2021/05/15 03:40:24;;;;;;;;;;;;;;;17.56;53.48;99285.41;5033556;28;20285;-38
2021/05/15 03:42:53;;;;;;;;;;;;;;;17.82;52.61;99284.72;5033505;28;19909;-38
2021/05/15 03:45:18;;;;;;;;;;;;;;;18.13;51.77;99289.22;5033700;28;19925;-37
2021/05/15 03:47:43;;;;;;;;;;;;;;;18.35;51.26;99294.41;5033606;28;20400;-36
2021/05/15 03:50:09;;;;;;;;;;;;;;;18.51;51.28;99297.94;5033161;28;19909;-37
2021/05/15 03:52:34;;;;;;;;;;;;;;;18.59;49.90;99287.72;5033523;28;20323;-38
2021/05/15 03:55:00;;;;;;;;;;;;;;;18.80;48.81;99291.25;5033243;28;20416;-37
2021/05/15 03:57:25;;;;;;;;;;;;;;;18.86;47.63;99284.78;5033226;28;19915;-39
2021/05/15 03:59:50;;;;;;;;;;;;;;;19.01;47.34;99292.88;5033621;28;19944;-37
2021/05/15 04:02:21;;;;;;;;;;;;;;;18.45;47.77;99284.69;5033040;28;19913;-38
2021/05/15 04:04:46;;;;;;;;;;;;;;;18.99;46.70;99278.88;5033071;28;19913;-37
2021/05/15 04:07:11;;;;;;;;;;;;;;;19.12;46.28;99277.53;5032824;28;19908;-37
2021/05/15 04:09:37;;;;;;;;;;;;;;;19.30;45.63;99278.84;5033087;28;19909;-38
2021/05/15 04:12:02;;;;;;;;;;;;;;;19.27;46.05;99277.50;5032940;28;20015;-38
2021/05/15 04:14:40;;;;;;;;;;;;;;;19.26;45.33;99277.75;5033018;28;19910;-37
2021/05/15 04:19:30;;;;;;;;;;;;;;;19.19;44.83;99271.84;5032796;28;19913;-37
2021/05/15 04:21:56;;;;;;;;;;;;;;;19.31;44.55;99270.47;5032624;28;20370;-38
2021/05/15 04:24:25;;;;;;;;;;;;;;;19.36;44.59;99277.75;5030996;28;19909;-38
2021/05/15 04:26:51;;;;;;;;;;;;;;;19.63;43.76;99276.59;5032487;28;20405;-39
2021/05/15 04:29:16;;;;;;;;;;;;;;;20.02;43.63;99265.16;5032389;28;19944;-38
2021/05/15 04:31:42;;;;;;;;;;;;;;;20.48;42.75;99268.38;5032498;28;20003;-39
2021/05/15 04:34:07;;;;;;;;;;;;;;;20.71;42.33;99268.81;5032744;28;19978;-38
2021/05/15 04:36:32;;;;;;;;;;;;;;;20.75;42.34;99267.16;5032403;28;19913;-39
2021/05/15 04:38:57;;;;;;;;;;;;;;;20.98;41.12;99262.09;5031540;28;19909;-38
2021/05/15 04:41:23;;;;;;;;;;;;;;;21.15;40.63;99259.81;5032200;28;19917;-38
2021/05/15 04:43:48;;;;;;;;;;;;;;;21.34;40.63;99259.84;5032303;28;19974;-38
2021/05/15 04:46:13;;;;;;;;;;;;;;;21.38;39.92;99258.22;5032357;28;20020;-38
2021/05/15 04:48:39;;;;;;;;;;;;;;;21.33;40.01;99263.69;5031946;28;19909;-37
2021/05/15 04:51:04;;;;;;;;;;;;;;;21.35;40.14;99266.91;5032098;28;19928;-38
2021/05/15 04:53:30;;;;;;;;;;;;;;;21.19;39.75;99270.84;5017656;28;20372;-38
2021/05/15 04:55:55;;;;;;;;;;;;;;;21.34;39.32;99275.31;5031366;28;19970;-38
2021/05/15 04:58:20;;;;;;;;;;;;;;;21.38;39.25;99277.16;5032422;28;19966;-38
2021/05/15 05:00:47;;;;;;;;;;;;;;;20.26;41.43;99276.13;5032149;28;20369;-38
2021/05/15 05:03:14;;;;;;;;;;;;;;;20.77;40.63;99283.09;5032013;28;19916;-38
2021/05/15 05:05:39;;;;;;;;;;;;;;;20.81;40.79;99281.44;5031675;28;20308;-38
2021/05/15 05:08:05;;;;;;;;;;;;;;;20.97;40.41;99282.94;5031295;28;19909;-38
2021/05/15 05:10:30;;;;;;;;;;;;;;;20.97;39.88;99282.94;5031156;28;19928;-38
2021/05/15 05:12:55;;;;;;;;;;;;;;;21.02;40.54;99285.59;5030588;28;19916;-39
2021/05/15 05:15:20;;;;;;;;;;;;;;;21.02;40.45;99288.31;5029897;28;19927;-38
2021/05/15 05:17:46;;;;;;;;;;;;;;;21.32;39.85;99289.09;5030712;28;19916;-38
2021/05/15 05:20:11;;;;;;;;;;;;;;;21.61;39.36;99293.72;5061981;28;20037;-38
2021/05/15 05:22:36;;;;;;;;;;;;;;;21.46;39.55;99289.28;5030108;28;19913;-39
2021/05/15 05:25:02;;;;;;;;;;;;;;;22.05;38.75;99292.69;5028737;28;20372;-38
2021/05/15 05:27:27;;;;;;;;;;;;;;;22.32;38.30;99285.88;5030217;28;19927;-38
2021/05/15 05:29:52;;;;;;;;;;;;;;;22.06;38.19;99288.88;5030505;28;19920;-37
2021/05/15 05:32:18;;;;;;;;;;;;;;;22.76;37.52;99281.97;5030208;28;19913;-38
2021/05/15 05:34:43;;;;;;;;;;;;;;;23.22;36.05;99275.78;5062171;28;19944;-37
2021/05/15 05:37:08;;;;;;;;;;;;;;;23.89;35.02;99280.78;5030191;28;19916;-37
2021/05/15 05:39:34;;;;;;;;;;;;;;;24.29;34.92;99272.84;5030860;28;19999;-37
2021/05/15 05:41:59;;;;;;;;;;;;;;;24.62;33.71;99272.72;5029087;28;20022;-38
2021/05/15 05:44:24;;;;;;;;;;;;;;;24.80;33.19;99275.56;5030637;28;19909;-37
2021/05/15 05:46:50;;;;;;;;;;;;;;;25.24;32.52;99263.03;5030349;28;19916;-37
2021/05/15 05:49:15;;;;;;;;;;;;;;;25.57;31.93;99274.41;5030308;28;19959;-39
2021/05/15 05:51:40;;;;;;;;;;;;;;;25.93;31.60;99268.78;5030594;28;20356;-38
2021/05/15 05:54:05;;;;;;;;;;;;;;;26.39;30.51;99241.22;5030043;28;19938;-38
2021/05/15 05:56:31;;;;;;;;;;;;;;;27.11;30.28;99256.09;5030336;28;19916;-38
2021/05/15 05:58:56;;;;;;;;;;;;;;;26.41;30.76;99253.44;5029987;28;19992;-38
2021/05/15 06:01:22;;;;;;;;;;;;;;;27.11;29.71;99261.53;5030282;28;19913;-36
2021/05/15 06:03:47;;;;;;;;;;;;;;;27.87;28.56;99251.78;5030235;28;19909;-37
2021/05/15 06:06:12;;;;;;;;;;;;;;;27.61;28.31;99247.25;5030313;28;19913;-37
2021/05/15 06:08:38;;;;;;;;;;;;;;;28.21;28.38;99244.50;5030224;28;20376;-37
2021/05/15 06:11:03;;;;;;;;;;;;;;;28.57;27.69;99246.63;5030061;28;19944;-37
2021/05/15 06:13:28;;;;;;;;;;;;;;;27.99;28.25;99240.16;5030097;28;20014;-36
2021/05/15 06:15:54;;;;;;;;;;;;;;;27.67;28.15;99243.19;5029993;28;20324;-38
2021/05/15 06:18:19;;;;;;;;;;;;;;;27.15;29.25;99234.41;5029026;28;19912;-39
2021/05/15 06:20:45;;;;;;;;;;;;;;;27.62;29.07;99237.91;5029261;28;20008;-38
2021/05/15 06:23:10;;;;;;;;;;;;;;;28.86;27.53;99233.97;5010396;28;19944;-38
2021/05/15 06:25:35;;;;;;;;;;;;;;;27.56;28.70;99233.78;5021613;28;20383;-39
2021/05/15 06:28:01;;;;;;;;;;;;;;;26.03;31.05;99226.00;5029118;28;19909;-39
2021/05/15 06:30:26;;;;;;;;;;;;;;;27.36;29.21;99221.66;5029433;28;20295;-37
2021/05/15 06:32:51;;;;;;;;;;;;;;;28.25;27.45;99205.22;5029821;28;19913;-38
2021/05/15 06:35:17;;;;;;;;;;;;;;;28.82;26.12;99206.47;5028076;28;20405;-38
2021/05/15 06:37:42;;;;;;;;;;;;;;;28.46;26.70;99201.63;5026203;28;19913;-38
2021/05/15 06:40:07;;;;;;;;;;;;;;;29.07;26.42;99208.47;5029057;28;20000;-38
2021/05/15 06:42:33;;;;;;;;;;;;;;;29.46;25.58;99203.50;5028827;28;19909;-37
2021/05/15 06:44:58;;;;;;;;;;;;;;;29.44;25.65;99195.63;5028545;28;19913;-37
2021/05/15 06:47:23;;;;;;;;;;;;;;;28.52;27.09;99192.13;5029341;28;19932;-37
2021/05/15 06:49:49;;;;;;;;;;;;;;;29.72;25.01;99192.97;5029747;28;20341;-38
2021/05/15 06:52:14;;;;;;;;;;;;;;;30.38;24.54;99199.25;5029368;28;20332;-38
2021/05/15 06:54:40;;;;;;;;;;;;;;;30.16;24.78;99189.59;5029101;28;19919;-38
2021/05/15 06:57:06;;;;;;;;;;;;;;;29.83;25.88;99196.06;5029146;28;19920;-38
2021/05/15 06:59:32;;;;;;;;;;;;;;;29.65;25.61;99192.75;5029456;28;19935;-38
2021/05/15 07:01:57;;;;;;;;;;;;;;;29.72;26.19;99194.91;5030790;28;19917;-37
2021/05/15 07:04:23;;;;;;;;;;;;;;;29.96;26.52;99192.13;5030069;28;19920;-38
2021/05/15 07:06:48;;;;;;;;;;;;;;;30.05;25.86;99200.25;5032432;28;20361;-38
2021/05/15 07:09:14;;;;;;;;;;;;;;;29.07;27.65;99200.25;5030900;28;19952;-38
2021/05/15 07:11:39;;;;;;;;;;;;;;;29.38;27.43;99203.28;5032334;28;19995;-38
2021/05/15 07:14:04;;;;;;;;;;;;;;;30.25;26.98;99197.66;5032429;28;20357;-37
2021/05/15 07:16:29;;;;;;;;;;;;;;;30.59;26.44;99199.03;5032536;28;20027;-38
2021/05/15 07:18:55;;;;;;;;;;;;;;;30.79;26.17;99200.75;5032446;28;19935;-38
2021/05/15 07:21:20;;;;;;;;;;;;;;;30.90;26.02;99198.34;5032264;28;20004;-38
2021/05/15 07:23:45;;;;;;;;;;;;;;;31.01;26.05;99187.59;5032523;28;19909;-38
2021/05/15 07:26:11;;;;;;;;;;;;;;;30.95;25.82;99186.28;5031998;28;19916;-38
2021/05/15 07:28:36;;;;;;;;;;;;;;;30.73;26.99;99193.13;5032377;28;19916;-38
2021/05/15 07:31:02;;;;;;;;;;;;;;;30.64;27.33;99198.78;5031530;28;19967;-37
2021/05/15 07:33:27;;;;;;;;;;;;;;;29.82;27.68;99189.00;5032867;28;20058;-38
2021/05/15 07:35:52;;;;;;;;;;;;;;;28.75;28.68;99189.00;5031472;28;19924;-38
2021/05/15 07:38:18;;;;;;;;;;;;;;;29.81;28.73;99184.63;5031817;28;20005;-38
2021/05/15 07:40:44;;;;;;;;;;;;;;;29.18;29.17;99180.31;5031538;28;19917;-38
2021/05/15 07:43:09;;;;;;;;;;;;;;;29.33;28.74;99183.53;5031764;28;19920;-38
2021/05/15 07:45:34;;;;;;;;;;;;;;;29.53;28.66;99192.75;5032270;28;20387;-38
2021/05/15 07:48:00;;;;;;;;;;;;;;;29.47;29.89;99191.38;5037182;28;20433;-38
2021/05/15 07:50:26;;;;;;;;;;;;;;;29.11;29.34;99193.75;5031754;28;19916;-38
2021/05/15 07:52:51;;;;;;;;;;;;;;;28.61;30.31;99192.81;5048011;28;19915;-37
2021/05/15 07:55:17;;;;;;;;;;;;;;;28.66;30.35;99183.63;5031635;28;19909;-38
2021/05/15 07:57:42;;;;;;;;;;;;;;;29.22;30.04;99177.69;5039398;28;19921;-37
2021/05/15 08:00:07;;;;;;;;;;;;;;;30.06;29.78;99184.56;5039595;28;20282;-38
2021/05/15 08:02:34;;;;;;;;;;;;;;;29.21;29.85;99187.84;5031719;28;19923;-38
2021/05/15 08:04:59;;;;;;;;;;;;;;;29.18;30.61;99179.50;5046866;28;19913;-37
2021/05/15 08:07:25;;;;;;;;;;;;;;;29.84;30.54;99177.69;5031641;28;19909;-38
2021/05/15 08:09:50;;;;;;;;;;;;;;;30.20;28.75;99180.31;5032106;28;20353;-38
2021/05/15 08:12:15;;;;;;;;;;;;;;;30.01;28.29;99182.88;5044220;28;19908;-38
2021/05/15 08:14:41;;;;;;;;;;;;;;;29.88;29.06;99187.59;5034572;28;19958;-38
2021/05/15 08:17:06;;;;;;;;;;;;;;;29.56;28.73;99184.63;5047495;28;19936;-38
2021/05/15 08:19:31;;;;;;;;;;;;;;;29.15;29.46;99181.00;5039022;28;20296;-38
2021/05/15 08:21:57;;;;;;;;;;;;;;;29.77;29.23;99176.28;5051328;28;19909;-38
2021/05/15 08:24:22;;;;;;;;;;;;;;;29.94;28.84;99171.69;5051738;28;20373;-38
2021/05/15 08:26:49;;;;;;;;;;;;;;;29.87;28.61;99168.75;5051913;28;19908;-38
2021/05/15 08:29:15;;;;;;;;;;;;;;;29.09;30.77;99165.88;5039807;28;19952;-38
2021/05/15 08:31:41;;;;;;;;;;;;;;;29.33;30.71;99164.34;5038980;28;20005;-39
2021/05/15 08:34:06;;;;;;;;;;;;;;;30.02;29.56;99168.84;5039233;28;19996;-39
2021/05/15 08:36:31;;;;;;;;;;;;;;;30.11;29.33;99165.13;5031789;28;19920;-38
2021/05/15 08:38:57;;;;;;;;;;;;;;;30.68;29.00;99152.22;5048985;28;19939;-38
2021/05/15 08:41:22;;;;;;;;;;;;;;;30.88;28.43;99161.34;5051081;28;19913;-39
2021/05/15 08:43:48;;;;;;;;;;;;;;;30.53;28.08;99151.03;5047409;28;19978;-38
2021/05/15 08:46:13;;;;;;;;;;;;;;;30.35;28.01;99150.56;5037384;28;20587;-38
2021/05/15 08:48:39;;;;;;;;;;;;;;;28.95;29.73;99122.41;5036650;28;20012;-39
2021/05/15 08:51:04;;;;;;;;;;;;;;;29.82;28.88;99150.59;5039008;28;19970;-38
2021/05/15 08:53:30;;;;;;;;;;;;;;;29.61;29.02;99143.28;5037954;28;20388;-37
2021/05/15 08:55:55;;;;;;;;;;;;;;;27.90;31.78;99141.78;5040064;28;19991;-37
2021/05/15 08:58:20;;;;;;;;;;;;;;;28.07;31.75;99130.72;5036735;28;19909;-38
2021/05/15 09:00:46;;;;;;;;;;;;;;;27.28;32.47;99144.09;5038494;28;19917;-38
2021/05/15 09:03:12;;;;;;;;;;;;;;;27.83;31.98;99133.28;5010849;28;19913;-38
2021/05/15 09:05:38;;;;;;;;;;;;;;;26.87;33.32;99137.34;5027137;28;20015;-37
2021/05/15 09:08:04;;;;;;;;;;;;;;;26.78;33.25;99125.66;5028577;28;19917;-39
2021/05/15 09:10:31;;;;;;;;;;;;;;;26.47;33.78;99125.88;5029557;28;19963;-38
2021/05/15 09:13:05;;;;;;;;;;;;;;;25.67;34.30;99121.56;5049537;28;19959;-37
2021/05/15 09:15:35;;;;;;;;;;;;;;;25.71;35.23;99130.69;5050943;28;19924;-38
2021/05/15 09:18:00;;;;;;;;;;;;;;;25.01;36.61;99118.00;5038270;28;19912;-38
2021/05/15 09:20:26;;;;;;;;;;;;;;;25.93;35.17;99118.88;5045635;28;19913;-38
2021/05/15 09:22:52;;;;;;;;;;;;;;;26.06;35.44;99125.25;5034025;28;19916;-38
2021/05/15 09:25:17;;;;;;;;;;;;;;;26.39;34.80;99123.94;5045191;28;19996;-39
2021/05/15 09:27:42;;;;;;;;;;;;;;;26.95;33.72;99118.53;5031518;28;19936;-37
2021/05/15 09:30:08;;;;;;;;;;;;;;;25.99;34.50;99114.06;5031078;28;20066;-38
2021/05/15 09:32:33;;;;;;;;;;;;;;;25.97;35.57;99113.59;5031999;28;20261;-38
2021/05/15 09:34:59;;;;;;;;;;;;;;;26.66;34.81;99099.03;5030079;28;20014;-38
2021/05/15 09:37:40;;;;;;;;;;;;;;;27.19;32.94;99107.81;5030631;28;19913;-37
2021/05/15 09:40:16;;;;;;;;;;;;;;;27.43;32.74;99111.88;5042671;28;19913;-38
2021/05/15 09:42:45;;;;;;;;;;;;;;;27.09;33.75;99092.59;5034020;28;19924;-38
2021/05/15 09:45:19;;;;;;;;;;;;;;;27.60;33.17;99098.09;5045797;28;20230;-38
2021/05/15 09:47:57;;;;;;;;;;;;;;;28.02;32.22;99098.09;5039952;28;19912;-38
2021/05/15 09:50:23;;;;;;;;;;;;;;;28.30;32.02;99092.06;5036386;28;19916;-38
2021/05/15 09:52:49;;;;;;;;;;;;;;;28.41;31.70;99095.97;5046828;28;20351;-38
2021/05/15 09:55:14;;;;;;;;;;;;;;;28.38;32.11;99079.41;5030015;28;19909;-38
2021/05/15 09:57:40;;;;;;;;;;;;;;;28.16;32.78;99070.47;5030447;28;19959;-37
2021/05/15 10:00:11;;;;;;;;;;;;;;;27.70;33.61;99064.09;5042491;28;20391;-37
2021/05/15 10:02:37;;;;;;;;;;;;;;;26.70;35.33;99058.28;5033905;28;19917;-39
2021/05/15 10:05:11;;;;;;;;;;;;;;;26.07;36.37;99053.28;5045465;28;19916;-38
2021/05/15 10:07:37;;;;;;;;;;;;;;;25.21;37.80;99048.56;5038491;28;20279;-37
2021/05/15 10:10:04;;;;;;;;;;;;;;;24.96;38.49;99050.94;5037390;28;19913;-38
2021/05/15 10:12:29;;;;;;;;;;;;;;;25.05;38.87;99042.75;5045782;28;20063;-37
2021/05/15 10:14:55;;;;;;;;;;;;;;;24.72;38.82;99043.94;5033227;28;20424;-37
2021/05/15 10:17:20;;;;;;;;;;;;;;;25.43;37.50;99036.78;5044530;28;19920;-41
2021/05/15 10:19:45;;;;;;;;;;;;;;;25.68;37.29;99033.25;5030306;28;20308;-37
2021/05/15 10:22:10;;;;;;;;;;;;;;;26.47;36.83;99033.94;5041582;28;20508;-38
2021/05/15 10:24:36;;;;;;;;;;;;;;;27.29;35.42;99030.19;5033928;28;19909;-37
2021/05/15 10:27:05;;;;;;;;;;;;;;;27.41;34.56;99041.19;5049677;28;20245;-38
2021/05/15 10:29:40;;;;;;;;;;;;;;;25.39;38.37;99043.97;5049810;28;20378;-37
2021/05/15 10:32:09;;;;;;;;;;;;;;;25.10;39.65;99058.97;5034334;28;19913;-38
2021/05/15 10:34:34;;;;;;;;;;;;;;;25.31;39.29;99051.03;5030933;28;20000;-38
2021/05/15 10:37:01;;;;;;;;;;;;;;;25.38;39.21;99045.09;5032725;28;19974;-38
2021/05/15 10:39:29;;;;;;;;;;;;;;;24.93;39.91;99046.91;5034471;28;20404;-38
2021/05/15 10:41:54;;;;;;;;;;;;;;;25.75;37.56;99043.66;5034477;28;20051;-38
2021/05/15 10:44:20;;;;;;;;;;;;;;;25.79;38.09;99022.03;5034710;28;20007;-37
2021/05/15 10:46:46;;;;;;;;;;;;;;;25.05;39.82;99016.34;5034087;28;19959;-37
2021/05/15 10:49:22;;;;;;;;;;;;;;;24.89;41.73;98986.06;5034401;28;20384;-40
2021/05/15 10:52:08;;;;;;;;;;;;;;;24.85;42.97;99006.88;5031784;28;20035;-54
2021/05/15 10:54:34;;;;;;;;;;;;;;;25.25;43.11;99016.91;5024324;28;20349;-52
2021/05/15 10:57:09;;;;;;;;;;;;;;;26.29;43.84;99018.75;5034421;28;19909;-51
2021/05/15 10:59:38;;;;;;;;;;;;;;;26.80;44.29;99006.03;5033843;28;19920;-50
2021/05/15 11:02:10;;;;;;;;;;;;;;;26.96;44.34;98997.28;5032810;28;20000;-50
2021/05/15 11:04:55;;;;;;;;;;;;;;;27.18;41.85;98988.78;5033856;28;19909;-50
2021/05/15 11:07:21;;;;;;;;;;;;;;;27.62;38.72;98983.00;5033553;28;19909;-49
2021/05/15 11:09:56;;;;;;;;;;;;;;;28.44;36.77;98982.28;5033530;28;19916;-50
2021/05/15 11:12:22;;;;;;;;;;;;;;;28.55;35.66;98983.47;5033760;28;19916;-52
2021/05/15 11:14:48;;;;;;;;;;;;;;;28.88;36.59;98981.75;5033158;28;19909;-51
2021/05/15 11:17:13;;;;;;;;;;;;;;;28.91;37.66;98972.84;5032931;28;19917;-52
2021/05/15 11:19:48;;;;;;;;;;;;;;;29.22;37.33;98967.53;5033811;28;20439;-52
2021/05/15 11:22:14;;;;;;;;;;;;;;;29.45;36.01;98961.53;5033272;28;20013;-50
2021/05/15 11:24:39;;;;;;;;;;;;;;;29.61;35.59;98961.59;5033134;28;19909;-49
2021/05/15 11:27:14;;;;;;;;;;;;;;;29.77;35.15;98956.19;5031666;28;20361;-51
2021/05/15 11:29:39;;;;;;;;;;;;;;;29.88;34.50;98951.00;5030655;28;19908;-51
2021/05/15 11:32:05;;;;;;;;;;;;;;;30.05;35.02;98960.81;5024922;28;19971;-50
2021/05/15 11:34:30;;;;;;;;;;;;;;;30.20;33.97;98960.03;5029336;28;19917;-50
2021/05/15 11:36:56;;;;;;;;;;;;;;;30.09;34.22;98956.22;5033034;28;19994;-52
2021/05/15 11:39:22;;;;;;;;;;;;;;;29.73;33.99;98947.06;5033644;28;19909;-48
2021/05/15 11:41:47;;;;;;;;;;;;;;;29.75;34.35;98961.22;5033571;28;19913;-51
2021/05/15 11:44:12;;;;;;;;;;;;;;;29.69;34.32;98960.63;5033482;28;19928;-50
2021/05/15 11:46:44;;;;;;;;;;;;;;;28.89;36.37;98961.44;5032835;28;19931;-52
2021/05/15 11:49:10;;;;;;;;;;;;;;;27.86;38.85;98944.81;5033421;28;20297;-38
2021/05/15 11:51:35;;;;;;;;;;;;;;;27.84;38.17;98941.63;5032177;28;19909;-39
2021/05/15 11:54:02;;;;;;;;;;;;;;;28.26;37.53;98946.16;5033629;28;19916;-52
2021/05/15 11:56:27;;;;;;;;;;;;;;;27.94;38.69;98940.41;5032028;28;19917;-51
2021/05/15 11:58:53;;;;;;;;;;;;;;;27.23;39.58;98935.91;5033398;28;20379;-53
2021/05/15 12:01:29;;;;;;;;;;;;;;;26.95;39.84;98930.19;5033025;28;19916;-52
2021/05/15 12:04:04;;;;;;;;;;;;;;;27.13;39.40;98930.84;5032939;28;19913;-51
2021/05/15 12:06:29;;;;;;;;;;;;;;;26.99;39.84;98918.25;5032898;28;19975;-52
2021/05/15 12:08:55;;;;;;;;;;;;;;;27.48;38.91;98926.72;5033140;28;20360;-49
2021/05/15 12:11:20;;;;;;;;;;;;;;;27.02;40.00;98919.53;5031658;28;19945;-50
2021/05/15 12:13:49;;;;;;;;;;;;;;;27.20;39.09;98923.72;5031424;28;19909;-38
2021/05/15 12:16:14;;;;;;;;;;;;;;;27.54;38.98;98924.56;5031199;28;20033;-39
2021/05/15 12:18:40;;;;;;;;;;;;;;;27.41;39.59;98917.47;5030692;28;20031;-38
2021/05/15 12:21:05;;;;;;;;;;;;;;;27.03;40.05;98915.66;5033075;28;19948;-39
2021/05/15 12:23:30;;;;;;;;;;;;;;;26.91;40.33;98913.66;5033014;28;19979;-38
2021/05/15 12:25:59;;;;;;;;;;;;;;;26.90;40.16;98904.69;5032645;28;19971;-38
2021/05/15 12:28:25;;;;;;;;;;;;;;;26.87;40.47;98896.38;5032778;28;19982;-38
2021/05/15 12:30:51;;;;;;;;;;;;;;;26.03;41.88;98904.34;5032626;28;19916;-38
2021/05/15 12:33:16;;;;;;;;;;;;;;;26.03;41.81;98907.88;5032943;28;20012;-38
2021/05/15 12:35:42;;;;;;;;;;;;;;;25.91;41.16;98889.47;5032179;28;19909;-39
2021/05/15 12:38:08;;;;;;;;;;;;;;;26.24;41.61;98907.16;5032673;28;19916;-39
2021/05/15 12:40:34;;;;;;;;;;;;;;;26.59;40.85;98910.50;5032707;28;19913;-38
2021/05/15 12:43:11;;;;;;;;;;;;;;;26.20;41.36;98906.19;5032680;28;20388;-39
2021/05/15 12:45:40;;;;;;;;;;;;;;;26.26;41.13;98907.63;5032546;28;19967;-38